Time;durP1;ratioP1;P1;durP2;ratioP2;P2;SDS_P1;SDS_P2;PMS_P1;PMS_P2;Temp;Humidity;BMP_temperature;BMP_pressure;BME280_temperature;BME280_humidity;BME280_pressure;Samples;Min_cycle;Max_cycle;Signal;HPM_P1;HPM_P2
2022/09/20 00:02:04;;;;;;;0.30;0.30;;;;;;;;;;7373491;19;20116;-73
2022/09/20 00:04:29;;;;;;;0.30;0.30;;;;;;;;;;7373270;19;20259;-73
2022/09/20 00:06:54;;;;;;;0.30;0.30;;;;;;;;;;7377103;19;20611;-73
2022/09/20 00:09:20;;;;;;;0.53;0.53;;;;;;;;;;7381537;19;20216;-73
2022/09/20 00:11:45;;;;;;;0.20;0.20;;;;;;;;;;7381858;19;20173;-73
2022/09/20 00:14:12;;;;;;;0.30;0.30;;;;;;;;;;7383164;19;20690;-73
2022/09/20 00:16:39;;;;;;;0.30;0.30;;;;;;;;;;7382891;19;20161;-73
2022/09/20 00:19:05;;;;;;;0.30;0.30;;;;;;;;;;7383275;19;20136;-73
2022/09/20 00:21:33;;;;;;;0.30;0.30;;;;;;;;;;7379947;19;20121;-73
2022/09/20 00:23:58;;;;;;;0.20;0.20;;;;;;;;;;7382528;19;20132;-73
2022/09/20 00:26:27;;;;;;;0.40;0.40;;;;;;;;;;7384526;19;20109;-73
2022/09/20 00:28:53;;;;;;;0.30;0.30;;;;;;;;;;7384688;19;20153;-74
2022/09/20 00:31:18;;;;;;;0.30;0.30;;;;;;;;;;7381087;19;20445;-74
2022/09/20 00:36:28;;;;;;;0.30;0.30;;;;;;;;;;7384862;19;20187;-72
2022/09/20 00:38:55;;;;;;;0.30;0.30;;;;;;;;;;7382169;19;20475;-72
2022/09/20 00:41:20;;;;;;;0.30;0.30;;;;;;;;;;7379743;19;20184;-72
2022/09/20 00:43:46;;;;;;;0.20;0.20;;;;;;;;;;7378865;19;20137;-72
2022/09/20 00:46:35;;;;;;;0.20;0.20;;;;;;;;;;7381562;19;21046;-72
2022/09/20 00:49:11;;;;;;;0.30;0.30;;;;;;;;;;7382412;19;20588;-72
2022/09/20 00:51:38;;;;;;;0.30;0.30;;;;;;;;;;7378610;19;20129;-73
2022/09/20 00:54:04;;;;;;;0.30;0.30;;;;;;;;;;7381173;19;20196;-73
2022/09/20 00:56:35;;;;;;;0.30;0.30;;;;;;;;;;7378058;19;20109;-72
2022/09/20 00:59:08;;;;;;;0.30;0.30;;;;;;;;;;7382560;19;20242;-73
2022/09/20 01:01:34;;;;;;;0.40;0.40;;;;;;;;;;7376112;19;20131;-73
2022/09/20 01:04:00;;;;;;;0.20;0.20;;;;;;;;;;7381970;19;20609;-72
2022/09/20 01:06:25;;;;;;;2.83;0.50;;;;;;;;;;7382256;19;20150;-73
2022/09/20 01:08:51;;;;;;;0.30;0.30;;;;;;;;;;7382110;19;20606;-73
2022/09/20 01:11:16;;;;;;;0.30;0.30;;;;;;;;;;7380280;19;20128;-73
2022/09/20 01:13:42;;;;;;;0.30;0.30;;;;;;;;;;7374433;19;20164;-73
2022/09/20 01:16:08;;;;;;;0.40;0.40;;;;;;;;;;7378582;19;20109;-73
2022/09/20 01:18:33;;;;;;;0.30;0.30;;;;;;;;;;7378985;19;20144;-73
2022/09/20 01:21:00;;;;;;;0.30;0.30;;;;;;;;;;7379559;19;20897;-72
2022/09/20 01:23:27;;;;;;;0.23;0.23;;;;;;;;;;7378005;19;20728;-73
2022/09/20 01:26:15;;;;;;;0.30;0.30;;;;;;;;;;7377506;19;20121;-73
2022/09/20 01:28:43;;;;;;;0.30;0.30;;;;;;;;;;7382331;19;20125;-73
2022/09/20 01:31:22;;;;;;;0.30;0.30;;;;;;;;;;7377985;19;20133;-73
2022/09/20 01:33:53;;;;;;;0.30;0.30;;;;;;;;;;7378357;19;20152;-73
2022/09/20 01:36:25;;;;;;;0.30;0.30;;;;;;;;;;7379059;19;20120;-72
2022/09/20 01:38:58;;;;;;;0.20;0.20;;;;;;;;;;7376668;19;20189;-72
2022/09/20 01:41:29;;;;;;;0.30;0.30;;;;;;;;;;7381541;19;20117;-72
2022/09/20 01:44:00;;;;;;;0.40;0.40;;;;;;;;;;7375695;19;20136;-72
2022/09/20 01:46:31;;;;;;;1.70;0.60;;;;;;;;;;7382855;19;20139;-73
2022/09/20 01:49:25;;;;;;;1.80;0.40;;;;;;;;;;7380839;19;20129;-72
2022/09/20 01:52:32;;;;;;;0.30;0.30;;;;;;;;;;7378768;19;20745;-72
2022/09/20 01:55:23;;;;;;;0.30;0.30;;;;;;;;;;7379540;19;20129;-73
2022/09/20 01:58:25;;;;;;;0.30;0.30;;;;;;;;;;7375786;19;20139;-73
2022/09/20 02:01:15;;;;;;;0.30;0.30;;;;;;;;;;7381245;19;20129;-73
2022/09/20 02:03:40;;;;;;;1.13;0.70;;;;;;;;;;7378610;19;20137;-72
2022/09/20 02:06:43;;;;;;;0.20;0.20;;;;;;;;;;7372951;19;20142;-72
2022/09/20 02:09:42;;;;;;;0.30;0.30;;;;;;;;;;7371967;19;20941;-72
2022/09/20 02:12:32;;;;;;;0.30;0.30;;;;;;;;;;7371863;19;20490;-72
2022/09/20 02:15:35;;;;;;;0.37;0.37;;;;;;;;;;7369971;19;20198;-72
2022/09/20 02:18:25;;;;;;;0.30;0.30;;;;;;;;;;7373476;19;20125;-72
2022/09/20 02:21:04;;;;;;;0.33;0.33;;;;;;;;;;7375733;19;20128;-73
2022/09/20 02:24:12;;;;;;;0.30;0.30;;;;;;;;;;7380021;19;20153;-72
2022/09/20 02:27:01;;;;;;;0.20;0.20;;;;;;;;;;7381678;19;20181;-72
2022/09/20 02:29:51;;;;;;;0.40;0.40;;;;;;;;;;7385900;19;20121;-72
2022/09/20 02:32:23;;;;;;;0.40;0.40;;;;;;;;;;7386349;19;20146;-72
2022/09/20 02:35:26;;;;;;;0.30;0.30;;;;;;;;;;7383938;19;20129;-73
2022/09/20 02:38:54;;;;;;;0.20;0.20;;;;;;;;;;7385775;19;20128;-72
2022/09/20 02:41:29;;;;;;;0.30;0.30;;;;;;;;;;7381749;19;20196;-72
2022/09/20 02:44:16;;;;;;;0.30;0.30;;;;;;;;;;7383743;19;20179;-73
2022/09/20 02:47:19;;;;;;;0.30;0.30;;;;;;;;;;7386959;19;20458;-73
2022/09/20 02:49:58;;;;;;;0.30;0.30;;;;;;;;;;7387048;19;20140;-74
2022/09/20 02:52:27;;;;;;;0.30;0.30;;;;;;;;;;7387087;19;20169;-73
2022/09/20 02:55:10;;;;;;;0.30;0.30;;;;;;;;;;7386146;19;20129;-73
2022/09/20 02:57:49;;;;;;;0.50;0.50;;;;;;;;;;7386218;19;20117;-73
2022/09/20 03:00:26;;;;;;;0.30;0.30;;;;;;;;;;7385304;19;20152;-72
2022/09/20 03:03:16;;;;;;;0.30;0.30;;;;;;;;;;7384933;19;20124;-73
2022/09/20 03:05:56;;;;;;;0.30;0.30;;;;;;;;;;7385389;19;20506;-73
2022/09/20 03:08:37;;;;;;;0.30;0.30;;;;;;;;;;7388567;19;20151;-73
2022/09/20 03:11:08;;;;;;;0.30;0.30;;;;;;;;;;7384404;19;20117;-72
2022/09/20 03:13:49;;;;;;;0.30;0.30;;;;;;;;;;7387208;19;20137;-74
2022/09/20 03:16:23;;;;;;;0.20;0.20;;;;;;;;;;7384250;19;20137;-73
2022/09/20 03:19:16;;;;;;;0.23;0.23;;;;;;;;;;7384356;19;20132;-73
2022/09/20 03:21:59;;;;;;;0.30;0.30;;;;;;;;;;7383242;19;20188;-73
2022/09/20 03:24:44;;;;;;;0.20;0.20;;;;;;;;;;7385179;19;20133;-72
2022/09/20 03:27:18;;;;;;;0.50;0.50;;;;;;;;;;7386860;19;20192;-74
2022/09/20 03:29:54;;;;;;;0.30;0.30;;;;;;;;;;7385071;19;20128;-72
2022/09/20 03:33:00;;;;;;;0.30;0.30;;;;;;;;;;7385140;19;20494;-72
2022/09/20 03:36:21;;;;;;;0.40;0.40;;;;;;;;;;7385263;19;20132;-73
2022/09/20 03:39:07;;;;;;;0.30;0.30;;;;;;;;;;7381399;19;20673;-74
2022/09/20 03:41:51;;;;;;;0.27;0.27;;;;;;;;;;7383911;19;20514;-73
2022/09/20 03:44:35;;;;;;;0.30;0.30;;;;;;;;;;7383616;19;20160;-72
2022/09/20 03:47:39;;;;;;;0.30;0.30;;;;;;;;;;7384037;19;20140;-72
2022/09/20 03:50:16;;;;;;;0.20;0.20;;;;;;;;;;7381213;19;20143;-71
2022/09/20 03:52:56;;;;;;;0.30;0.30;;;;;;;;;;7385762;19;20951;-72
2022/09/20 03:55:37;;;;;;;0.30;0.30;;;;;;;;;;7386162;19;20135;-72
2022/09/20 03:58:15;;;;;;;0.30;0.30;;;;;;;;;;7385675;19;20128;-73
2022/09/20 04:00:49;;;;;;;0.30;0.30;;;;;;;;;;7385568;19;20125;-72
2022/09/20 04:03:32;;;;;;;0.30;0.30;;;;;;;;;;7385208;19;20136;-72
2022/09/20 04:06:03;;;;;;;0.20;0.20;;;;;;;;;;7384019;19;20113;-72
2022/09/20 04:08:50;;;;;;;0.30;0.30;;;;;;;;;;7382471;19;20687;-73
2022/09/20 04:11:31;;;;;;;0.20;0.20;;;;;;;;;;7379676;19;20137;-73
2022/09/20 04:14:13;;;;;;;0.20;0.20;;;;;;;;;;7375925;19;20227;-72
2022/09/20 04:16:49;;;;;;;0.40;0.40;;;;;;;;;;7378049;19;20607;-72
2022/09/20 04:19:22;;;;;;;0.27;0.27;;;;;;;;;;7378472;19;20117;-72
2022/09/20 04:21:54;;;;;;;0.20;0.20;;;;;;;;;;7381420;19;20587;-73
2022/09/20 04:24:29;;;;;;;0.20;0.20;;;;;;;;;;7377565;19;20622;-72
2022/09/20 04:26:59;;;;;;;0.27;0.27;;;;;;;;;;7382926;19;20128;-73
2022/09/20 04:29:34;;;;;;;0.33;0.33;;;;;;;;;;7383698;19;20172;-73
2022/09/20 04:32:11;;;;;;;0.30;0.30;;;;;;;;;;7380225;19;20465;-73
2022/09/20 04:37:34;;;;;;;0.30;0.30;;;;;;;;;;7375401;19;20127;-72
2022/09/20 04:40:09;;;;;;;0.30;0.30;;;;;;;;;;7378976;19;20122;-72
2022/09/20 04:42:37;;;;;;;0.40;0.40;;;;;;;;;;7380694;19;20697;-72
2022/09/20 04:45:20;;;;;;;0.30;0.30;;;;;;;;;;7376957;19;20129;-73
2022/09/20 04:48:01;;;;;;;0.30;0.30;;;;;;;;;;7375457;19;20121;-73
2022/09/20 04:50:54;;;;;;;0.33;0.33;;;;;;;;;;7374447;19;20545;-73
2022/09/20 04:54:09;;;;;;;0.30;0.30;;;;;;;;;;7370155;19;21010;-73
2022/09/20 04:56:51;;;;;;;0.30;0.30;;;;;;;;;;7370902;19;20661;-72
2022/09/20 06:23:26;;;;;;;0.40;0.40;;;;;;;;;;7380332;19;20204;-74
2022/09/20 06:25:56;;;;;;;0.30;0.30;;;;;;;;;;7378216;19;20436;-75
2022/09/20 06:28:32;;;;;;;0.30;0.30;;;;;;;;;;7384425;19;20477;-74
2022/09/20 06:30:57;;;;;;;0.20;0.20;;;;;;;;;;7382833;19;20117;-74
2022/09/20 06:33:24;;;;;;;0.30;0.30;;;;;;;;;;7382559;19;20634;-74
2022/09/20 06:41:59;;;;;;;0.30;0.30;;;;;;;;;;7382416;19;20626;-75
2022/09/20 06:44:24;;;;;;;0.20;0.20;;;;;;;;;;7373181;19;20641;-74
2022/09/20 06:46:53;;;;;;;0.30;0.30;;;;;;;;;;7378280;19;20479;-73
2022/09/20 06:49:18;;;;;;;0.30;0.30;;;;;;;;;;7382700;19;20133;-75
2022/09/20 06:51:44;;;;;;;0.33;0.33;;;;;;;;;;7381179;19;20117;-75
2022/09/20 06:54:14;;;;;;;0.23;0.23;;;;;;;;;;7376660;19;20129;-76
2022/09/20 06:56:39;;;;;;;0.43;0.43;;;;;;;;;;7375773;19;20128;-75
2022/09/20 06:59:10;;;;;;;0.40;0.40;;;;;;;;;;7376074;19;20133;-75
2022/09/20 07:01:35;;;;;;;0.53;0.53;;;;;;;;;;7381900;19;20132;-77
2022/09/20 07:04:01;;;;;;;0.50;0.50;;;;;;;;;;7384833;19;20163;-75
2022/09/20 07:06:27;;;;;;;0.30;0.30;;;;;;;;;;7375440;19;20131;-75
2022/09/20 07:08:53;;;;;;;0.50;0.50;;;;;;;;;;7379100;19;20133;-75
2022/09/20 07:11:18;;;;;;;0.30;0.30;;;;;;;;;;7375156;19;20113;-76
2022/09/20 07:13:44;;;;;;;0.70;0.70;;;;;;;;;;7381625;19;20140;-75
2022/09/20 07:16:12;;;;;;;1.27;0.87;;;;;;;;;;7372004;19;20559;-75
2022/09/20 07:18:38;;;;;;;0.40;0.40;;;;;;;;;;7375665;19;20117;-75
2022/09/20 07:21:05;;;;;;;0.40;0.40;;;;;;;;;;7377956;19;20148;-75
2022/09/20 07:23:30;;;;;;;0.40;0.40;;;;;;;;;;7378528;19;20164;-76
2022/09/20 07:25:59;;;;;;;0.30;0.30;;;;;;;;;;7377761;19;20136;-75
2022/09/20 07:28:29;;;;;;;0.30;0.30;;;;;;;;;;7364906;19;20473;-75
2022/09/20 07:30:55;;;;;;;0.30;0.30;;;;;;;;;;7370923;19;20117;-75
2022/09/20 07:33:20;;;;;;;0.30;0.30;;;;;;;;;;7380340;19;20121;-75
2022/09/20 07:35:52;;;;;;;0.30;0.30;;;;;;;;;;7375808;19;20133;-76
2022/09/20 07:38:18;;;;;;;0.30;0.30;;;;;;;;;;7379484;19;20125;-75
2022/09/20 07:40:45;;;;;;;0.30;0.30;;;;;;;;;;7371326;19;20150;-75
2022/09/20 07:43:11;;;;;;;0.30;0.30;;;;;;;;;;7378069;19;20591;-75
2022/09/20 07:45:38;;;;;;;1.43;0.60;;;;;;;;;;7377724;19;20152;-75
2022/09/20 07:48:06;;;;;;;2.30;0.57;;;;;;;;;;7378560;19;20494;-75
2022/09/20 07:50:32;;;;;;;0.30;0.30;;;;;;;;;;7378873;19;20140;-76
2022/09/20 07:52:58;;;;;;;0.20;0.20;;;;;;;;;;7378962;19;20130;-75
2022/09/20 07:56:14;;;;;;;0.30;0.30;;;;;;;;;;7381176;19;20634;-75
2022/09/20 07:58:44;;;;;;;0.67;0.67;;;;;;;;;;7379881;19;20129;-75
2022/09/20 08:01:12;;;;;;;0.30;0.30;;;;;;;;;;7378035;19;20117;-75
2022/09/20 08:03:38;;;;;;;0.67;0.67;;;;;;;;;;7380318;19;20133;-75
2022/09/20 08:06:08;;;;;;;0.30;0.30;;;;;;;;;;7378964;19;20116;-75
2022/09/20 08:08:35;;;;;;;0.30;0.30;;;;;;;;;;7380899;19;20117;-76
2022/09/20 08:11:05;;;;;;;0.40;0.40;;;;;;;;;;7378074;19;20235;-76
2022/09/20 08:13:45;;;;;;;0.93;0.83;;;;;;;;;;7380004;19;20153;-75
2022/09/20 08:16:14;;;;;;;1.23;0.93;;;;;;;;;;7381958;19;20117;-76
2022/09/20 08:18:57;;;;;;;1.50;0.70;;;;;;;;;;7379911;19;20121;-75
2022/09/20 08:21:31;;;;;;;0.40;0.40;;;;;;;;;;7381557;19;20129;-75
2022/09/20 08:23:56;;;;;;;0.30;0.30;;;;;;;;;;7379071;19;20603;-76
2022/09/20 08:26:25;;;;;;;0.30;0.30;;;;;;;;;;7381735;19;20128;-75
2022/09/20 08:28:56;;;;;;;0.30;0.30;;;;;;;;;;7379325;19;20141;-75
2022/09/20 08:31:26;;;;;;;0.30;0.30;;;;;;;;;;7380043;19;20178;-75
2022/09/20 08:33:53;;;;;;;0.30;0.30;;;;;;;;;;7382140;19;20189;-74
2022/09/20 08:40:37;;;;;;;0.83;0.83;;;;;;;;;;7377510;19;20108;-74
2022/09/20 08:43:05;;;;;;;0.30;0.30;;;;;;;;;;7383140;19;20132;-74
2022/09/20 08:45:30;;;;;;;0.30;0.30;;;;;;;;;;7382681;19;20137;-76
2022/09/20 08:47:58;;;;;;;0.30;0.30;;;;;;;;;;7380059;19;20108;-75
2022/09/20 08:50:23;;;;;;;0.30;0.30;;;;;;;;;;7380654;19;20694;-74
2022/09/20 08:52:52;;;;;;;0.20;0.20;;;;;;;;;;7380967;19;20121;-74
2022/09/20 08:55:33;;;;;;;0.30;0.30;;;;;;;;;;7381443;19;20139;-74
2022/09/20 08:57:59;;;;;;;0.30;0.30;;;;;;;;;;7380157;19;20109;-74
2022/09/20 09:00:28;;;;;;;0.30;0.30;;;;;;;;;;7382096;19;20613;-74
2022/09/20 09:02:56;;;;;;;0.20;0.20;;;;;;;;;;7381579;19;20676;-76
2022/09/20 09:05:38;;;;;;;0.30;0.30;;;;;;;;;;7380667;19;20117;-76
2022/09/20 09:08:15;;;;;;;0.30;0.30;;;;;;;;;;7381525;19;20121;-74
2022/09/20 09:10:40;;;;;;;0.30;0.30;;;;;;;;;;7379032;19;20117;-74
2022/09/20 09:13:06;;;;;;;0.40;0.40;;;;;;;;;;7380888;19;20148;-73
2022/09/20 09:15:33;;;;;;;0.30;0.30;;;;;;;;;;7379967;19;20137;-73
2022/09/20 09:17:59;;;;;;;0.37;0.37;;;;;;;;;;7381354;19;20156;-74
2022/09/20 09:20:25;;;;;;;0.30;0.30;;;;;;;;;;7380664;19;20109;-75
2022/09/20 09:25:47;;;;;;;0.30;0.30;;;;;;;;;;7383944;19;20204;-74
2022/09/20 09:28:13;;;;;;;0.30;0.30;;;;;;;;;;7381830;19;20133;-75
2022/09/20 09:30:41;;;;;;;0.30;0.30;;;;;;;;;;7379402;19;20105;-74
2022/09/20 09:33:13;;;;;;;0.77;0.77;;;;;;;;;;7379950;19;20113;-76
2022/09/20 09:35:38;;;;;;;0.30;0.30;;;;;;;;;;7380223;19;20471;-76
2022/09/20 09:38:04;;;;;;;0.30;0.30;;;;;;;;;;7378792;19;20133;-74
2022/09/20 09:40:30;;;;;;;0.30;0.30;;;;;;;;;;7385043;19;20114;-75
2022/09/20 09:42:58;;;;;;;0.30;0.30;;;;;;;;;;7379833;19;20133;-73
2022/09/20 09:45:31;;;;;;;0.30;0.30;;;;;;;;;;7386007;19;20622;-74
2022/09/20 09:47:58;;;;;;;0.30;0.30;;;;;;;;;;7381302;19;20117;-77
2022/09/20 09:50:33;;;;;;;0.30;0.30;;;;;;;;;;7378474;19;20346;-73
2022/09/20 09:53:02;;;;;;;0.30;0.30;;;;;;;;;;7387601;19;20120;-73
2022/09/20 09:55:40;;;;;;;0.40;0.40;;;;;;;;;;7388128;19;20526;-74
2022/09/20 09:58:21;;;;;;;0.30;0.30;;;;;;;;;;7386852;19;20557;-74
2022/09/20 10:00:47;;;;;;;0.30;0.30;;;;;;;;;;7388456;19;20153;-74
2022/09/20 10:03:25;;;;;;;0.40;0.40;;;;;;;;;;7381436;19;20174;-76
2022/09/20 10:06:09;;;;;;;0.57;0.57;;;;;;;;;;7389325;19;20196;-76
2022/09/20 10:08:54;;;;;;;0.30;0.30;;;;;;;;;;7389851;19;20120;-78
2022/09/20 10:11:23;;;;;;;0.30;0.30;;;;;;;;;;7387945;19;20117;-77
2022/09/20 10:13:55;;;;;;;0.23;0.23;;;;;;;;;;7384934;19;20220;-78
2022/09/20 10:17:06;;;;;;;0.30;0.30;;;;;;;;;;7382415;19;20608;-76
2022/09/20 10:20:05;;;;;;;0.30;0.30;;;;;;;;;;7382484;19;20519;-78
2022/09/20 10:22:50;;;;;;;0.30;0.30;;;;;;;;;;7385350;19;20117;-76
2022/09/20 10:28:47;;;;;;;0.30;0.30;;;;;;;;;;7387749;19;20108;-76
2022/09/20 10:31:43;;;;;;;0.30;0.30;;;;;;;;;;7386909;19;20116;-74
2022/09/20 10:34:26;;;;;;;0.30;0.30;;;;;;;;;;7385531;19;20164;-75
2022/09/20 10:36:59;;;;;;;0.30;0.30;;;;;;;;;;7383964;19;20144;-75
2022/09/20 10:39:33;;;;;;;0.30;0.30;;;;;;;;;;7384056;19;20591;-74
2022/09/20 10:45:09;;;;;;;0.20;0.20;;;;;;;;;;7378716;19;20309;-74
2022/09/20 10:47:58;;;;;;;0.40;0.40;;;;;;;;;;7386632;19;20138;-75
2022/09/20 10:50:38;;;;;;;0.35;0.35;;;;;;;;;;7385655;19;20204;-76
2022/09/20 10:53:16;;;;;;;0.32;0.32;;;;;;;;;;7383090;19;20112;-75
2022/09/20 10:55:46;;;;;;;0.20;0.20;;;;;;;;;;7386978;19;20116;-75
2022/09/20 10:58:53;;;;;;;0.30;0.30;;;;;;;;;;7386224;19;20583;-74
2022/09/20 11:04:52;;;;;;;0.30;0.30;;;;;;;;;;7384462;19;20133;-76
2022/09/20 11:07:40;;;;;;;0.70;0.47;;;;;;;;;;7385334;19;20139;-74
2022/09/20 11:10:19;;;;;;;0.30;0.30;;;;;;;;;;7381224;19;20557;-75
2022/09/20 11:12:59;;;;;;;0.40;0.40;;;;;;;;;;7383204;19;20117;-75
2022/09/20 11:15:36;;;;;;;0.40;0.40;;;;;;;;;;7387034;19;20490;-75
2022/09/20 11:18:22;;;;;;;0.30;0.30;;;;;;;;;;7377432;19;20475;-77
2022/09/20 11:21:08;;;;;;;0.35;0.35;;;;;;;;;;7381538;19;20124;-75
2022/09/20 11:24:09;;;;;;;1.38;0.65;;;;;;;;;;7380950;19;20125;-74
2022/09/20 11:26:38;;;;;;;0.30;0.30;;;;;;;;;;7380378;19;20171;-75
2022/09/20 11:29:28;;;;;;;0.30;0.30;;;;;;;;;;7369689;19;20139;-75
2022/09/20 11:31:59;;;;;;;0.30;0.30;;;;;;;;;;7379845;19;20124;-76
2022/09/20 11:34:29;;;;;;;0.30;0.30;;;;;;;;;;7376405;19;20639;-75
2022/09/20 11:36:57;;;;;;;0.32;0.32;;;;;;;;;;7381792;19;20579;-75
2022/09/20 11:39:38;;;;;;;0.30;0.30;;;;;;;;;;7380859;19;20133;-77
2022/09/20 11:42:05;;;;;;;0.30;0.30;;;;;;;;;;7380071;19;20232;-75
2022/09/20 11:44:31;;;;;;;0.30;0.30;;;;;;;;;;7373763;19;20156;-75
2022/09/20 11:47:18;;;;;;;0.30;0.30;;;;;;;;;;7387738;19;20156;-75
2022/09/20 11:50:22;;;;;;;0.40;0.40;;;;;;;;;;7390110;19;20125;-76
2022/09/20 11:52:51;;;;;;;0.30;0.30;;;;;;;;;;7389362;19;20508;-75
2022/09/20 11:55:41;;;;;;;0.40;0.40;;;;;;;;;;7383456;19;20510;-75
2022/09/20 11:58:12;;;;;;;0.40;0.40;;;;;;;;;;7380250;19;20140;-75
2022/09/20 12:00:43;;;;;;;0.95;0.70;;;;;;;;;;7381707;19;20145;-75
2022/09/20 12:03:36;;;;;;;0.30;0.30;;;;;;;;;;7385113;19;20153;-75
2022/09/20 12:06:32;;;;;;;0.30;0.30;;;;;;;;;;7385277;19;20565;-74
2022/09/20 12:09:00;;;;;;;0.30;0.30;;;;;;;;;;7383305;19;20133;-76
2022/09/20 12:11:28;;;;;;;0.47;0.47;;;;;;;;;;7383808;19;20121;-76
2022/09/20 12:14:24;;;;;;;0.30;0.30;;;;;;;;;;7383509;19;20186;-76
2022/09/20 12:16:50;;;;;;;0.52;0.40;;;;;;;;;;7380840;19;20128;-76
2022/09/20 12:19:44;;;;;;;0.30;0.30;;;;;;;;;;7374549;19;20133;-77
2022/09/20 12:22:13;;;;;;;0.40;0.40;;;;;;;;;;7377664;19;20129;-76
2022/09/20 12:24:39;;;;;;;0.32;0.32;;;;;;;;;;7382520;19;20212;-76
2022/09/20 12:27:26;;;;;;;0.40;0.40;;;;;;;;;;7384758;19;20117;-76
2022/09/20 12:30:05;;;;;;;0.40;0.40;;;;;;;;;;7386062;19;20615;-75
2022/09/20 12:32:44;;;;;;;1.20;1.10;;;;;;;;;;7387178;19;20113;-76
2022/09/20 12:35:43;;;;;;;0.30;0.30;;;;;;;;;;7381661;19;20203;-75
2022/09/20 12:38:20;;;;;;;0.30;0.30;;;;;;;;;;7380701;19;20461;-75
2022/09/20 12:41:10;;;;;;;1.05;0.95;;;;;;;;;;7385171;19;20120;-75
2022/09/20 12:43:57;;;;;;;0.40;0.40;;;;;;;;;;7382165;19;20148;-75
2022/09/20 12:46:48;;;;;;;0.30;0.30;;;;;;;;;;7379850;19;20125;-76
2022/09/20 12:55:40;;;;;;;0.30;0.30;;;;;;;;;;7380191;19;20137;-76
2022/09/20 12:58:09;;;;;;;0.40;0.40;;;;;;;;;;7379923;19;20124;-76
2022/09/20 13:00:45;;;;;;;0.40;0.40;;;;;;;;;;7378036;19;20117;-75
2022/09/20 13:03:14;;;;;;;0.30;0.30;;;;;;;;;;7377570;19;20120;-75
2022/09/20 13:05:44;;;;;;;0.30;0.30;;;;;;;;;;7376151;19;20139;-75
2022/09/20 13:08:22;;;;;;;0.30;0.30;;;;;;;;;;7377761;19;20189;-77
2022/09/20 13:11:00;;;;;;;0.30;0.30;;;;;;;;;;7374202;19;20376;-75
2022/09/20 13:13:50;;;;;;;0.30;0.30;;;;;;;;;;7379036;19;20121;-75
2022/09/20 13:16:47;;;;;;;0.30;0.30;;;;;;;;;;7379896;19;20598;-75
2022/09/20 13:19:17;;;;;;;0.30;0.30;;;;;;;;;;7378704;19;20787;-75
2022/09/20 13:21:53;;;;;;;4.82;0.85;;;;;;;;;;7378137;19;20647;-75
2022/09/20 13:24:19;;;;;;;0.30;0.30;;;;;;;;;;7377458;19;20690;-76
2022/09/20 13:26:46;;;;;;;0.45;0.45;;;;;;;;;;7380798;19;20152;-76
2022/09/20 13:29:41;;;;;;;0.30;0.30;;;;;;;;;;7380430;19;20172;-76
2022/09/20 13:32:30;;;;;;;0.40;0.40;;;;;;;;;;7376368;19;20124;-75
2022/09/20 13:35:08;;;;;;;1.02;0.40;;;;;;;;;;7372167;19;20152;-75
2022/09/20 13:37:35;;;;;;;0.75;0.75;;;;;;;;;;7379350;19;20140;-75
2022/09/20 13:40:01;;;;;;;0.40;0.40;;;;;;;;;;7376910;19;20436;-75
2022/09/20 13:42:28;;;;;;;0.30;0.30;;;;;;;;;;7377599;19;20256;-75
2022/09/20 13:44:55;;;;;;;0.73;0.73;;;;;;;;;;7372721;19;20641;-75
2022/09/20 13:47:26;;;;;;;0.40;0.40;;;;;;;;;;7378497;19;20136;-75
2022/09/20 13:49:52;;;;;;;0.68;0.68;;;;;;;;;;7376478;19;20612;-75
2022/09/20 13:52:29;;;;;;;0.30;0.30;;;;;;;;;;7376625;19;20121;-75
2022/09/20 13:54:54;;;;;;;0.47;0.47;;;;;;;;;;7377150;19;20136;-75
2022/09/20 13:57:29;;;;;;;0.30;0.30;;;;;;;;;;7378477;19;20121;-75
2022/09/20 13:59:55;;;;;;;0.30;0.30;;;;;;;;;;7374039;19;20113;-75
2022/09/20 14:02:31;;;;;;;0.35;0.35;;;;;;;;;;7375403;19;20161;-75
2022/09/20 14:04:59;;;;;;;0.38;0.38;;;;;;;;;;7371082;19;20161;-75
2022/09/20 14:11:28;;;;;;;0.30;0.30;;;;;;;;;;7368079;19;20142;-75
2022/09/20 14:13:56;;;;;;;0.40;0.40;;;;;;;;;;7371489;19;20126;-75
2022/09/20 14:16:27;;;;;;;0.40;0.40;;;;;;;;;;7370129;19;20133;-75
2022/09/20 14:18:52;;;;;;;0.30;0.30;;;;;;;;;;7368727;19;20113;-75
2022/09/20 14:21:24;;;;;;;0.50;0.50;;;;;;;;;;7365895;19;20109;-75
2022/09/20 14:23:56;;;;;;;0.40;0.40;;;;;;;;;;7377780;19;20496;-75
2022/09/20 14:26:24;;;;;;;0.30;0.30;;;;;;;;;;7383473;19;20188;-75
2022/09/20 14:28:50;;;;;;;0.30;0.30;;;;;;;;;;7381632;19;20133;-75
2022/09/20 14:31:20;;;;;;;0.40;0.40;;;;;;;;;;7378069;19;20121;-75
2022/09/20 14:33:48;;;;;;;0.30;0.30;;;;;;;;;;7373541;19;20153;-75
2022/09/20 14:36:18;;;;;;;0.30;0.30;;;;;;;;;;7374624;19;20117;-75
2022/09/20 14:38:45;;;;;;;0.40;0.40;;;;;;;;;;7374418;19;20125;-75
2022/09/20 14:41:12;;;;;;;0.40;0.40;;;;;;;;;;7380209;19;20115;-75
2022/09/20 14:43:37;;;;;;;0.30;0.30;;;;;;;;;;7369083;19;20161;-75
2022/09/20 14:46:15;;;;;;;0.30;0.30;;;;;;;;;;7375010;19;20112;-75
2022/09/20 14:48:40;;;;;;;0.47;0.47;;;;;;;;;;7383473;19;20485;-75
2022/09/20 14:51:15;;;;;;;0.30;0.30;;;;;;;;;;7384618;19;20113;-75
2022/09/20 14:53:42;;;;;;;0.30;0.30;;;;;;;;;;7376944;19;20128;-75
2022/09/20 14:56:12;;;;;;;0.30;0.30;;;;;;;;;;7373459;19;20116;-74
2022/09/20 14:59:20;;;;;;;0.30;0.30;;;;;;;;;;7373730;19;20120;-74
2022/09/20 15:01:58;;;;;;;0.40;0.40;;;;;;;;;;7376251;19;20121;-74
2022/09/20 15:04:26;;;;;;;0.30;0.30;;;;;;;;;;7369692;19;20129;-74
2022/09/20 15:06:52;;;;;;;0.40;0.40;;;;;;;;;;7373224;19;20124;-75
2022/09/20 15:09:18;;;;;;;0.30;0.30;;;;;;;;;;7381369;19;20473;-75
2022/09/20 15:11:43;;;;;;;1.00;1.00;;;;;;;;;;7376131;19;20151;-75
2022/09/20 15:14:09;;;;;;;0.30;0.30;;;;;;;;;;7378847;19;20623;-75
2022/09/20 15:16:34;;;;;;;0.50;0.50;;;;;;;;;;7383561;19;20121;-75
2022/09/20 15:19:00;;;;;;;0.30;0.30;;;;;;;;;;7381204;19;20177;-75
2022/09/20 15:21:25;;;;;;;0.40;0.40;;;;;;;;;;7382030;19;20113;-75
2022/09/20 15:23:51;;;;;;;0.30;0.30;;;;;;;;;;7385147;19;20129;-75
2022/09/20 15:26:17;;;;;;;0.30;0.30;;;;;;;;;;7383010;19;20149;-75
2022/09/20 15:28:42;;;;;;;0.30;0.30;;;;;;;;;;7382182;19;20113;-75
2022/09/20 15:31:08;;;;;;;0.30;0.30;;;;;;;;;;7382306;19;20129;-75
2022/09/20 15:33:34;;;;;;;0.30;0.30;;;;;;;;;;7383499;19;20125;-75
2022/09/20 15:36:01;;;;;;;0.30;0.30;;;;;;;;;;7381923;19;20140;-75
2022/09/20 15:38:26;;;;;;;0.30;0.30;;;;;;;;;;7382760;19;20213;-75
2022/09/20 15:40:52;;;;;;;0.30;0.30;;;;;;;;;;7384154;19;20143;-75
2022/09/20 15:43:22;;;;;;;0.30;0.30;;;;;;;;;;7383385;19;20902;-74
2022/09/20 15:45:56;;;;;;;0.30;0.30;;;;;;;;;;7385145;19;20113;-75
2022/09/20 15:48:24;;;;;;;0.30;0.30;;;;;;;;;;7383227;19;20135;-75
2022/09/20 15:51:00;;;;;;;0.30;0.30;;;;;;;;;;7383455;19;20120;-75
2022/09/20 15:53:30;;;;;;;0.30;0.30;;;;;;;;;;7382126;19;20262;-75
2022/09/20 15:55:57;;;;;;;0.30;0.30;;;;;;;;;;7381954;19;20129;-75
2022/09/20 15:58:24;;;;;;;0.30;0.30;;;;;;;;;;7381783;19;20113;-75
2022/09/20 16:00:50;;;;;;;0.30;0.30;;;;;;;;;;7384047;19;20128;-73
2022/09/20 16:03:16;;;;;;;0.30;0.30;;;;;;;;;;7385911;19;20117;-74
2022/09/20 16:05:42;;;;;;;0.40;0.40;;;;;;;;;;7382292;19;20120;-74
2022/09/20 16:08:07;;;;;;;0.30;0.30;;;;;;;;;;7382707;19;20599;-76
2022/09/20 16:10:32;;;;;;;0.30;0.30;;;;;;;;;;7382195;19;20156;-76
2022/09/20 16:12:58;;;;;;;0.30;0.30;;;;;;;;;;7381374;19;20526;-76
2022/09/20 16:15:23;;;;;;;0.30;0.30;;;;;;;;;;7381369;19;20204;-76
2022/09/20 16:20:32;;;;;;;0.38;0.38;;;;;;;;;;7382307;19;20141;-76
2022/09/20 16:22:58;;;;;;;0.30;0.30;;;;;;;;;;7382430;19;20121;-76
2022/09/20 16:25:23;;;;;;;0.30;0.30;;;;;;;;;;7380786;19;20121;-76
2022/09/20 16:27:48;;;;;;;0.30;0.30;;;;;;;;;;7382150;19;20117;-76
2022/09/20 16:30:14;;;;;;;0.30;0.30;;;;;;;;;;7379328;19;20586;-76
2022/09/20 16:32:40;;;;;;;0.30;0.30;;;;;;;;;;7382038;19;20120;-76
2022/09/20 16:35:06;;;;;;;0.30;0.30;;;;;;;;;;7378856;19;20129;-76
2022/09/20 16:37:32;;;;;;;0.30;0.30;;;;;;;;;;7381591;19;20113;-75
2022/09/20 16:39:58;;;;;;;0.55;0.55;;;;;;;;;;7379890;19;20125;-75
2022/09/20 16:42:23;;;;;;;0.30;0.30;;;;;;;;;;7384161;19;20134;-75
2022/09/20 16:44:49;;;;;;;0.30;0.30;;;;;;;;;;7380691;19;20514;-75
2022/09/20 16:47:20;;;;;;;0.40;0.40;;;;;;;;;;7380557;19;20109;-75
2022/09/20 16:49:47;;;;;;;0.30;0.30;;;;;;;;;;7377708;19;20492;-75
2022/09/20 16:52:13;;;;;;;0.30;0.30;;;;;;;;;;7379934;19;20139;-75
2022/09/20 16:54:38;;;;;;;0.30;0.30;;;;;;;;;;7377969;19;20145;-76
2022/09/20 16:57:04;;;;;;;0.30;0.30;;;;;;;;;;7380693;19;20120;-75
2022/09/20 16:59:29;;;;;;;0.30;0.30;;;;;;;;;;7377502;19;20149;-76
2022/09/20 17:01:54;;;;;;;0.30;0.30;;;;;;;;;;7378162;19;20180;-75
2022/09/20 17:04:20;;;;;;;0.30;0.30;;;;;;;;;;7377958;19;20113;-76
2022/09/20 17:06:46;;;;;;;0.30;0.30;;;;;;;;;;7380004;19;20504;-76
2022/09/20 17:09:13;;;;;;;0.30;0.30;;;;;;;;;;7377260;19;20622;-75
2022/09/20 17:11:40;;;;;;;0.30;0.30;;;;;;;;;;7380071;19;20657;-75
2022/09/20 17:14:06;;;;;;;0.30;0.30;;;;;;;;;;7379373;19;20153;-75
2022/09/20 17:16:34;;;;;;;0.30;0.30;;;;;;;;;;7378072;19;20474;-75
2022/09/20 17:19:01;;;;;;;0.30;0.30;;;;;;;;;;7378133;19;20109;-75
2022/09/20 17:21:27;;;;;;;0.30;0.30;;;;;;;;;;7371308;19;20160;-75
2022/09/20 17:23:55;;;;;;;0.27;0.27;;;;;;;;;;7371715;19;20212;-75
2022/09/20 17:26:30;;;;;;;0.40;0.40;;;;;;;;;;7376026;19;20571;-75
2022/09/20 17:28:57;;;;;;;0.30;0.30;;;;;;;;;;7377462;19;20156;-76
2022/09/20 17:31:31;;;;;;;0.30;0.30;;;;;;;;;;7377008;19;20124;-75